Westlake, Texas
Current Conditions -  °F | °C
As of 11:53 PM on Tuesday 21 Oct 2014 (Local Time) from KAFW Reporting Station
Few Clouds Few Clouds  
Wind Chill: 64°   Ceiling: Unl
Heat Index: 64°   Visibility: 10mi
Dew Point: 57°   Wind: 0mph
Humidity: 78%   Direction: NA
Pressure: 30.07"   Gusts: NA
Location:  32.996°N, 97.2275°W
Report Text: KAFW 220453Z 00000KT 10SM FEW300 18/14 A3007 RMK AO2 SLP172 T01780139
Loading
Personal Weather Stations






























Interactive Weather Map
Tropical Storm Tracking
New forecast layout! Learn more

10-Day Weather Forecast

Advertisements
Track Severe Weather on mobile